Time;durP1;ratioP1;P1;durP2;ratioP2;P2;SDS_P1;SDS_P2;PMS_P1;PMS_P2;Temp;Humidity;BMP_temperature;BMP_pressure;BME280_temperature;BME280_humidity;BME280_pressure;Samples;Min_cycle;Max_cycle;Signal;HPM_P1;HPM_P2
2021/12/18 00:01:21;;;;;;;9.80;5.57;;;7.40;99.90;;;;;;5073647;28;20200;-55
2021/12/18 00:03:49;;;;;;;11.00;6.28;;;7.40;99.90;;;;;;5073279;28;20222;-56
2021/12/18 00:06:16;;;;;;;11.07;6.80;;;7.40;99.90;;;;;;5073306;28;20573;-55
2021/12/18 00:08:44;;;;;;;12.38;7.13;;;7.40;99.90;;;;;;5073419;28;20665;-54
2021/12/18 00:11:14;;;;;;;12.82;7.60;;;7.40;99.90;;;;;;5073444;28;20205;-54
2021/12/18 00:13:41;;;;;;;10.75;6.45;;;7.40;99.90;;;;;;5073077;28;20685;-55
2021/12/18 00:16:09;;;;;;;13.68;6.60;;;7.40;99.90;;;;;;5073498;28;20216;-55
2021/12/18 00:18:37;;;;;;;11.02;6.43;;;7.40;99.90;;;;;;5073167;28;20212;-55
2021/12/18 00:21:07;;;;;;;7.97;5.43;;;7.40;99.90;;;;;;5073138;28;20216;-56
2021/12/18 00:23:34;;;;;;;8.73;4.28;;;7.40;99.90;;;;;;5073038;28;20228;-56
2021/12/18 00:26:01;;;;;;;7.07;4.40;;;7.40;99.90;;;;;;5077382;28;20687;-55
2021/12/18 00:28:28;;;;;;;6.80;4.28;;;7.40;99.90;;;;;;5078893;28;20205;-55
2021/12/18 00:30:55;;;;;;;7.30;4.38;;;7.40;99.90;;;;;;5079396;28;20200;-54
2021/12/18 00:33:22;;;;;;;6.90;4.50;;;7.40;99.90;;;;;;5079111;28;20680;-55
2021/12/18 00:35:51;;;;;;;7.00;4.28;;;7.30;99.90;;;;;;5078597;28;20212;-56
2021/12/18 00:38:18;;;;;;;7.15;4.22;;;7.30;99.90;;;;;;5078674;28;20610;-54
2021/12/18 00:40:47;;;;;;;7.20;4.35;;;7.30;99.90;;;;;;5079011;28;20215;-55
2021/12/18 00:43:25;;;;;;;8.73;4.57;;;7.30;99.90;;;;;;5077595;28;20221;-56
2021/12/18 00:45:52;;;;;;;10.23;5.72;;;7.30;99.90;;;;;;5077004;28;20186;-55
2021/12/18 00:48:20;;;;;;;7.18;3.85;;;7.30;99.90;;;;;;5076753;28;20681;-56
2021/12/18 00:50:48;;;;;;;7.28;3.83;;;7.30;99.90;;;;;;5076450;28;20201;-56
2021/12/18 00:53:16;;;;;;;6.80;3.67;;;7.30;99.90;;;;;;5076368;28;20651;-55
2021/12/18 00:55:45;;;;;;;5.30;2.95;;;7.30;99.90;;;;;;5076982;28;20201;-56
2021/12/18 00:58:12;;;;;;;6.68;3.88;;;7.30;99.90;;;;;;5076835;28;20201;-56
2021/12/18 01:00:42;;;;;;;5.22;3.50;;;7.20;99.90;;;;;;5076499;28;20680;-56
2021/12/18 01:03:16;;;;;;;7.05;4.97;;;7.30;99.90;;;;;;5076522;28;20217;-57
2021/12/18 01:05:43;;;;;;;6.60;4.13;;;7.20;99.90;;;;;;5076615;28;20376;-55
2021/12/18 01:08:10;;;;;;;10.52;4.32;;;7.20;99.90;;;;;;5076330;28;20219;-56
2021/12/18 01:10:55;;;;;;;7.47;4.35;;;7.20;99.90;;;;;;5076401;28;20208;-55
2021/12/18 01:13:27;;;;;;;8.52;5.00;;;7.20;99.90;;;;;;5076409;28;20232;-56
2021/12/18 01:16:03;;;;;;;10.07;5.25;;;7.30;99.90;;;;;;5076132;28;20189;-54
2021/12/18 01:24:02;;;;;;;10.02;5.35;;;7.30;99.90;;;;;;5075764;28;20224;-57
2021/12/18 01:26:30;;;;;;;9.82;5.78;;;7.30;99.90;;;;;;5075726;28;20283;-54
2021/12/18 01:28:57;;;;;;;9.63;5.53;;;7.30;99.90;;;;;;5075753;28;20211;-55
2021/12/18 01:31:24;;;;;;;11.93;6.15;;;7.30;99.90;;;;;;5076015;28;20223;-56
2021/12/18 01:33:51;;;;;;;9.82;5.03;;;7.30;99.90;;;;;;5075573;28;20220;-57
2021/12/18 01:36:19;;;;;;;12.30;6.03;;;7.30;99.90;;;;;;5075162;28;20209;-54
2021/12/18 01:38:46;;;;;;;9.20;5.72;;;7.30;99.90;;;;;;5075525;28;20205;-56
2021/12/18 01:41:14;;;;;;;9.18;5.40;;;7.40;99.90;;;;;;5075618;28;20197;-56
2021/12/18 01:44:35;;;;;;;9.60;6.15;;;7.30;99.90;;;;;;5075466;28;20617;-57
2021/12/18 01:51:12;;;;;;;9.18;5.03;;;7.30;99.90;;;;;;5075292;28;20213;-55
2021/12/18 01:52:35;;;;;;;9.40;5.78;;;7.30;99.90;;;;;;5075683;28;20219;-56
2021/12/18 01:55:02;;;;;;;10.73;6.18;;;7.30;99.90;;;;;;5075420;28;20247;-56
2021/12/18 01:57:31;;;;;;;10.10;6.07;;;7.30;99.90;;;;;;5075142;28;20201;-55
2021/12/18 02:00:00;;;;;;;7.35;4.70;;;7.30;99.90;;;;;;5075429;28;20278;-55
2021/12/18 02:02:27;;;;;;;8.63;5.57;;;7.30;99.90;;;;;;5075376;28;20235;-55
2021/12/18 02:04:54;;;;;;;9.57;5.88;;;7.30;99.90;;;;;;5075241;28;20197;-55
2021/12/18 02:07:21;;;;;;;8.90;4.93;;;7.20;99.90;;;;;;5075306;28;20208;-55
2021/12/18 02:10:00;;;;;;;9.90;4.80;;;7.20;99.90;;;;;;5075211;28;20201;-55
2021/12/18 02:12:36;;;;;;;10.75;4.85;;;7.20;99.90;;;;;;5074981;28;20225;-55
2021/12/18 02:20:44;;;;;;;7.97;3.95;;;7.20;99.90;;;;;;5075178;28;20180;-56
2021/12/18 02:23:11;;;;;;;6.68;3.95;;;7.20;99.90;;;;;;5074716;28;20700;-56
2021/12/18 02:25:39;;;;;;;6.90;4.35;;;7.20;99.90;;;;;;5074880;28;20279;-56
2021/12/18 02:28:14;;;;;;;7.18;3.65;;;7.20;99.90;;;;;;5074607;28;20197;-55
2021/12/18 02:30:41;;;;;;;6.53;4.35;;;7.20;99.90;;;;;;5074505;28;20664;-56
2021/12/18 02:33:08;;;;;;;6.63;4.15;;;7.20;99.90;;;;;;5074839;28;20316;-55
2021/12/18 02:35:44;;;;;;;7.55;5.20;;;7.20;99.90;;;;;;5074992;28;20201;-56
2021/12/18 02:38:16;;;;;;;7.53;4.40;;;7.10;99.90;;;;;;5074850;28;20192;-57
2021/12/18 02:43:39;;;;;;;10.20;5.60;;;7.10;99.90;;;;;;5040606;28;20224;-56
2021/12/18 02:46:09;;;;;;;12.57;5.38;;;7.10;99.90;;;;;;5078245;28;20588;-56
2021/12/18 02:48:37;;;;;;;10.82;6.15;;;7.10;99.90;;;;;;5075290;28;20288;-57
2021/12/18 02:51:07;;;;;;;8.80;5.53;;;7.10;99.90;;;;;;5074923;28;20205;-56
2021/12/18 02:53:36;;;;;;;10.55;5.50;;;7.20;99.90;;;;;;5074297;28;20229;-55
2021/12/18 02:56:08;;;;;;;8.73;5.40;;;7.20;99.90;;;;;;5074557;28;20573;-55
2021/12/18 02:58:37;;;;;;;8.85;4.85;;;7.20;99.90;;;;;;5074033;28;20185;-54
2021/12/18 03:01:05;;;;;;;7.80;4.55;;;7.10;99.90;;;;;;5074131;28;20201;-56
2021/12/18 03:03:35;;;;;;;8.65;4.68;;;7.20;99.90;;;;;;5074506;28;20220;-55
2021/12/18 03:06:19;;;;;;;7.80;5.25;;;7.20;99.90;;;;;;5074378;28;20185;-56
2021/12/18 03:08:53;;;;;;;7.05;4.00;;;7.10;99.90;;;;;;5074582;28;20200;-55
2021/12/18 03:22:52;;;;;;;7.03;3.40;;;7.00;99.90;;;;;;5073605;28;20273;-55
2021/12/18 03:25:20;;;;;;;6.00;4.00;;;7.00;99.90;;;;;;5073613;28;20193;-55
2021/12/18 03:27:49;;;;;;;7.22;4.20;;;7.00;99.90;;;;;;5073560;28;20664;-56
2021/12/18 03:30:17;;;;;;;6.50;3.50;;;7.00;99.90;;;;;;5073615;28;20204;-54
2021/12/18 03:32:45;;;;;;;8.35;4.03;;;7.00;99.90;;;;;;5073767;28;20220;-55
2021/12/18 03:35:12;;;;;;;8.45;4.07;;;7.00;99.90;;;;;;5073416;28;20228;-55
2021/12/18 03:37:41;;;;;;;8.30;4.45;;;7.00;99.90;;;;;;5073396;28;20207;-56
2021/12/18 03:40:11;;;;;;;6.38;4.30;;;7.00;99.90;;;;;;5073325;28;20201;-56
2021/12/18 03:42:39;;;;;;;7.70;4.68;;;7.00;99.90;;;;;;5073299;28;20228;-55
2021/12/18 03:45:08;;;;;;;6.57;3.90;;;7.00;99.90;;;;;;5073289;28;20197;-56
2021/12/18 03:47:35;;;;;;;6.85;3.80;;;7.00;99.90;;;;;;5073261;28;20652;-54
2021/12/18 03:50:03;;;;;;;5.85;3.80;;;6.90;99.90;;;;;;5073188;28;20295;-54
2021/12/18 03:52:30;;;;;;;7.53;4.85;;;6.90;99.90;;;;;;5073077;28;20225;-56
2021/12/18 03:54:59;;;;;;;7.78;4.05;;;6.90;99.90;;;;;;5073037;28;20221;-54
2021/12/18 03:57:26;;;;;;;8.07;4.55;;;6.90;99.90;;;;;;5073458;28;20236;-55
2021/12/18 03:59:54;;;;;;;6.68;4.80;;;6.90;99.90;;;;;;5072831;28;20200;-55
2021/12/18 04:02:21;;;;;;;6.70;4.78;;;6.90;99.90;;;;;;5073301;28;20232;-55
2021/12/18 04:04:48;;;;;;;8.27;4.50;;;6.90;99.90;;;;;;5074731;28;20209;-55
2021/12/18 04:09:03;;;;;;;6.70;3.60;;;6.80;99.90;;;;;;5106659;27;1459073;-56
2021/12/18 04:11:30;;;;;;;7.43;4.25;;;6.80;99.90;;;;;;5135477;28;20469;-56
2021/12/18 04:13:57;;;;;;;4.55;3.00;;;6.80;99.90;;;;;;5119478;28;20220;-57
2021/12/18 04:16:24;;;;;;;6.55;3.30;;;6.70;99.90;;;;;;5119083;28;20204;-56
2021/12/18 04:18:51;;;;;;;8.20;4.28;;;6.70;99.90;;;;;;5118962;28;20565;-56
2021/12/18 04:21:19;;;;;;;7.97;4.95;;;6.60;99.90;;;;;;5127021;22;20226;-60
2021/12/18 04:23:46;;;;;;;11.32;6.88;;;6.60;99.90;;;;;;5091068;28;20232;-59
2021/12/18 04:26:15;;;;;;;9.25;5.50;;;6.60;99.90;;;;;;5091241;28;20205;-60
2021/12/18 04:28:42;;;;;;;13.63;6.80;;;6.60;99.90;;;;;;5090753;28;20593;-61
2021/12/18 04:31:09;;;;;;;14.52;6.50;;;6.60;99.90;;;;;;5100952;28;20223;-60
2021/12/18 04:33:36;;;;;;;10.25;5.65;;;6.60;99.90;;;;;;5116110;28;20600;-60
2021/12/18 04:36:03;;;;;;;12.52;7.05;;;6.60;99.90;;;;;;5113445;28;20681;-60
2021/12/18 04:38:31;;;;;;;12.43;7.20;;;6.60;99.90;;;;;;5111046;28;20682;-60
2021/12/18 04:40:59;;;;;;;9.23;5.45;;;6.60;99.90;;;;;;5110963;28;20227;-59
2021/12/18 04:43:27;;;;;;;8.95;5.65;;;6.60;99.90;;;;;;5110936;28;20207;-59
2021/12/18 04:45:54;;;;;;;9.27;5.55;;;6.60;99.90;;;;;;5110587;28;20210;-60
2021/12/18 04:48:21;;;;;;;8.70;5.80;;;6.60;99.90;;;;;;5110477;28;20219;-60
2021/12/18 04:50:48;;;;;;;7.85;5.50;;;6.60;99.90;;;;;;5110977;28;20223;-61
2021/12/18 04:53:16;;;;;;;15.02;7.03;;;6.60;99.90;;;;;;5111296;28;20240;-61
2021/12/18 04:55:43;;;;;;;10.25;6.13;;;6.60;99.90;;;;;;5111299;28;20208;-59
2021/12/18 04:58:10;;;;;;;9.80;5.40;;;6.60;99.90;;;;;;5111297;28;20211;-60
2021/12/18 05:00:40;;;;;;;9.98;6.15;;;6.60;99.90;;;;;;5110810;28;20220;-59
2021/12/18 05:03:12;;;;;;;10.57;6.05;;;6.50;99.90;;;;;;5110815;28;20573;-60
2021/12/18 05:05:39;;;;;;;9.65;5.60;;;6.50;99.90;;;;;;5110932;28;20241;-60
2021/12/18 05:08:06;;;;;;;14.13;7.10;;;6.60;99.90;;;;;;5110453;28;20223;-59
2021/12/18 05:10:34;;;;;;;11.77;6.40;;;6.50;99.90;;;;;;5110504;28;20565;-61
2021/12/18 05:13:01;;;;;;;9.60;6.03;;;6.60;99.90;;;;;;5110377;28;20199;-61
2021/12/18 05:15:28;;;;;;;12.60;7.28;;;6.60;99.90;;;;;;5111229;28;20207;-60
2021/12/18 05:17:56;;;;;;;11.30;6.65;;;6.50;99.90;;;;;;5114868;28;20210;-60
2021/12/18 05:20:23;;;;;;;10.88;6.25;;;6.60;99.90;;;;;;5100477;28;20243;-60
2021/12/18 05:22:50;;;;;;;14.30;7.20;;;6.60;99.90;;;;;;5096988;28;20184;-60
2021/12/18 05:25:17;;;;;;;13.00;7.30;;;6.60;99.90;;;;;;5097513;28;20666;-60
2021/12/18 05:27:45;;;;;;;13.23;7.72;;;6.60;99.90;;;;;;5098342;28;20239;-61
2021/12/18 05:30:12;;;;;;;13.70;8.23;;;6.60;99.90;;;;;;5096813;28;20227;-60
2021/12/18 05:32:40;;;;;;;15.60;7.55;;;6.60;99.90;;;;;;5096243;28;20701;-61
2021/12/18 05:35:09;;;;;;;11.60;6.47;;;6.60;99.90;;;;;;5096622;28;20204;-61
2021/12/18 05:40:23;;;;;;;15.65;8.38;;;6.60;99.90;;;;;;5096139;28;20266;-59
2021/12/18 05:42:51;;;;;;;15.18;8.43;;;6.60;99.90;;;;;;5096171;28;20558;-58
2021/12/18 05:45:19;;;;;;;12.05;7.55;;;6.60;99.90;;;;;;5096439;28;20204;-59
2021/12/18 05:47:47;;;;;;;13.40;8.02;;;6.60;99.90;;;;;;5095930;28;20220;-60
2021/12/18 05:50:17;;;;;;;13.18;7.78;;;6.70;99.90;;;;;;5095939;28;20664;-60
2021/12/18 05:52:46;;;;;;;13.80;8.55;;;6.60;99.90;;;;;;5096224;28;20192;-60
2021/12/18 05:55:14;;;;;;;15.23;9.05;;;6.70;99.90;;;;;;5096230;28;20208;-61
2021/12/18 05:57:41;;;;;;;15.93;9.25;;;6.70;99.90;;;;;;5096493;28;20563;-59
2021/12/18 06:00:10;;;;;;;13.80;7.90;;;6.60;99.90;;;;;;5096224;28;20196;-60
2021/12/18 06:02:38;;;;;;;16.83;8.65;;;6.60;99.90;;;;;;5097186;28;20204;-59
2021/12/18 06:05:07;;;;;;;14.85;7.60;;;6.70;99.90;;;;;;5096592;28;20201;-59
2021/12/18 06:07:51;;;;;;;13.10;7.40;;;6.60;99.90;;;;;;5101761;28;20216;-60
2021/12/18 06:10:19;;;;;;;10.30;6.05;;;6.60;99.90;;;;;;5106874;28;20227;-59
2021/12/18 06:12:46;;;;;;;10.15;6.63;;;6.60;99.90;;;;;;5109453;28;20723;-59
2021/12/18 06:15:14;;;;;;;11.63;6.32;;;6.60;99.90;;;;;;5105780;28;20731;-59
2021/12/18 06:17:41;;;;;;;11.20;5.75;;;6.60;99.90;;;;;;5107438;28;20613;-59
2021/12/18 06:20:10;;;;;;;11.77;6.07;;;6.60;99.90;;;;;;5102512;28;20250;-59
2021/12/18 06:22:39;;;;;;;8.57;4.80;;;6.60;99.90;;;;;;5097972;28;20223;-59
2021/12/18 06:25:07;;;;;;;9.18;5.15;;;6.60;99.90;;;;;;5099215;28;20300;-59
2021/12/18 06:27:34;;;;;;;10.35;4.43;;;6.50;99.90;;;;;;5099619;28;20263;-59
2021/12/18 06:30:02;;;;;;;7.55;4.85;;;6.50;99.90;;;;;;5099973;28;20616;-59
2021/12/18 06:32:29;;;;;;;7.70;4.05;;;6.50;99.90;;;;;;5097483;28;20210;-57
2021/12/18 06:34:56;;;;;;;8.23;3.75;;;6.50;99.90;;;;;;5096690;28;20211;-58
2021/12/18 06:37:23;;;;;;;6.80;3.97;;;6.50;99.90;;;;;;5096784;28;20227;-59
2021/12/18 06:39:52;;;;;;;9.57;4.90;;;6.50;99.90;;;;;;5097591;28;20672;-59
2021/12/18 06:42:19;;;;;;;7.35;3.92;;;6.50;99.90;;;;;;5097034;28;20231;-58
2021/12/18 06:44:46;;;;;;;8.35;4.35;;;6.50;99.90;;;;;;5097493;28;20204;-59
2021/12/18 06:47:13;;;;;;;10.15;5.60;;;6.50;99.90;;;;;;5098777;28;20211;-59
2021/12/18 06:49:40;;;;;;;9.30;5.13;;;6.50;99.90;;;;;;5098066;28;20220;-59
2021/12/18 06:52:08;;;;;;;9.40;4.00;;;6.50;99.90;;;;;;5096800;28;20216;-59
2021/12/18 06:54:35;;;;;;;10.60;4.72;;;6.50;99.90;;;;;;5097779;28;20200;-59
2021/12/18 06:57:04;;;;;;;8.05;4.30;;;6.60;99.90;;;;;;5100579;28;20573;-59
2021/12/18 06:59:31;;;;;;;9.18;4.63;;;6.60;99.90;;;;;;5098842;28;20193;-59
2021/12/18 07:01:59;;;;;;;8.88;4.72;;;6.60;99.90;;;;;;5098426;28;20230;-59
2021/12/18 07:04:26;;;;;;;8.85;5.40;;;6.60;99.90;;;;;;5094905;28;20287;-60
2021/12/18 07:06:54;;;;;;;10.57;5.45;;;6.60;99.90;;;;;;5094619;28;20203;-61
2021/12/18 07:09:22;;;;;;;11.65;5.30;;;6.60;99.90;;;;;;5094649;28;20265;-61
2021/12/18 07:11:49;;;;;;;11.40;5.57;;;6.70;99.90;;;;;;5095089;28;20224;-61
2021/12/18 07:14:17;;;;;;;9.90;5.78;;;6.70;99.90;;;;;;5095052;28;20218;-60
2021/12/18 07:16:44;;;;;;;11.38;6.03;;;6.70;99.90;;;;;;5095387;28;20698;-60
2021/12/18 07:19:11;;;;;;;14.88;5.20;;;6.70;99.90;;;;;;5095827;28;20203;-61
2021/12/18 07:21:38;;;;;;;10.00;4.57;;;6.70;99.90;;;;;;5095371;28;20228;-61
2021/12/18 07:24:06;;;;;;;9.95;5.60;;;6.70;99.90;;;;;;5095779;28;20219;-58
2021/12/18 07:26:33;;;;;;;10.00;5.13;;;6.70;99.90;;;;;;5095609;28;20214;-61
2021/12/18 07:29:01;;;;;;;8.25;4.30;;;6.70;99.90;;;;;;5095854;28;20247;-61
2021/12/18 07:31:29;;;;;;;9.05;5.47;;;6.70;99.90;;;;;;5095420;28;20220;-60
2021/12/18 07:33:56;;;;;;;8.73;5.00;;;6.80;99.90;;;;;;5094519;28;20215;-61
2021/12/18 07:36:23;;;;;;;8.13;4.22;;;6.70;99.90;;;;;;5094276;28;20200;-60
2021/12/18 07:38:51;;;;;;;11.43;5.40;;;6.80;99.90;;;;;;5094513;28;20207;-60
2021/12/18 07:41:18;;;;;;;7.57;4.85;;;6.70;99.90;;;;;;5094450;28;20224;-60
2021/12/18 07:43:45;;;;;;;9.10;5.47;;;6.70;99.90;;;;;;5094290;28;20200;-61
2021/12/18 07:46:12;;;;;;;10.73;5.03;;;6.70;99.90;;;;;;5094415;28;20207;-59
2021/12/18 07:48:41;;;;;;;10.70;4.88;;;6.70;99.90;;;;;;5094478;28;20228;-60
2021/12/18 07:51:08;;;;;;;11.85;5.80;;;6.80;99.90;;;;;;5094354;28;20227;-58
2021/12/18 07:53:35;;;;;;;16.15;6.00;;;6.70;99.90;;;;;;5094563;28;20208;-60
2021/12/18 07:56:03;;;;;;;11.30;5.78;;;6.80;99.90;;;;;;5095491;28;20672;-59
2021/12/18 07:58:30;;;;;;;14.95;6.95;;;6.70;99.90;;;;;;5095767;28;20203;-63
2021/12/18 08:00:57;;;;;;;13.82;6.18;;;6.70;99.90;;;;;;5097175;28;20228;-61
2021/12/18 08:03:25;;;;;;;10.98;6.40;;;6.80;99.90;;;;;;5096629;28;20676;-60
2021/12/18 08:05:53;;;;;;;14.50;7.00;;;6.80;99.90;;;;;;5097229;28;20196;-59
2021/12/18 08:08:20;;;;;;;10.38;6.40;;;6.70;99.90;;;;;;5097744;28;20212;-60
2021/12/18 08:10:47;;;;;;;14.00;6.70;;;6.80;99.90;;;;;;5096923;28;20235;-60
2021/12/18 08:13:15;;;;;;;11.23;6.72;;;6.80;99.90;;;;;;5094548;28;20204;-60
2021/12/18 08:15:42;;;;;;;9.13;5.45;;;6.80;99.90;;;;;;5094107;28;20201;-58
2021/12/18 08:18:09;;;;;;;9.88;6.53;;;6.80;99.90;;;;;;5094332;28;20215;-60
2021/12/18 08:20:37;;;;;;;11.52;6.15;;;6.80;99.90;;;;;;5094068;28;20241;-60
2021/12/18 08:23:06;;;;;;;11.32;6.65;;;6.80;99.90;;;;;;5093853;28;20188;-60
2021/12/18 08:25:34;;;;;;;12.57;7.65;;;6.80;99.90;;;;;;5094230;28;20528;-61
2021/12/18 08:28:03;;;;;;;12.85;7.22;;;6.80;99.90;;;;;;5093706;28;20208;-61
2021/12/18 08:30:33;;;;;;;9.40;6.35;;;6.80;99.90;;;;;;5093951;28;20220;-61
2021/12/18 08:33:00;;;;;;;11.10;6.00;;;6.80;99.90;;;;;;5093702;28;20207;-60
2021/12/18 08:35:29;;;;;;;10.30;5.40;;;6.90;99.90;;;;;;5103590;28;20204;-60
2021/12/18 08:37:57;;;;;;;7.38;5.40;;;6.80;99.90;;;;;;5105163;28;20253;-59
2021/12/18 08:40:27;;;;;;;7.82;5.47;;;6.90;99.90;;;;;;5095888;28;20224;-61
2021/12/18 08:42:54;;;;;;;10.20;6.18;;;6.90;99.90;;;;;;5094593;28;20619;-60
2021/12/18 08:45:22;;;;;;;8.88;5.07;;;6.90;99.90;;;;;;5093971;28;20203;-60
2021/12/18 08:47:49;;;;;;;11.05;5.97;;;6.90;99.90;;;;;;5094285;28;20215;-60
2021/12/18 08:50:18;;;;;;;8.48;4.97;;;6.90;99.90;;;;;;5093719;28;20224;-61
2021/12/18 08:52:45;;;;;;;7.35;4.82;;;6.90;99.90;;;;;;5093912;28;20200;-61
2021/12/18 08:55:13;;;;;;;5.68;3.60;;;6.90;99.90;;;;;;5097061;28;20196;-60
2021/12/18 08:57:41;;;;;;;7.85;3.42;;;6.90;99.90;;;;;;5097867;28;20200;-61
2021/12/18 09:00:11;;;;;;;6.68;3.85;;;6.90;99.90;;;;;;5097523;28;20207;-60
2021/12/18 09:02:40;;;;;;;6.07;3.47;;;6.90;99.90;;;;;;5098021;28;20211;-61
2021/12/18 09:05:08;;;;;;;7.07;4.07;;;6.90;99.90;;;;;;5098939;28;20317;-60
2021/12/18 09:07:35;;;;;;;6.50;3.90;;;6.90;99.90;;;;;;5097583;28;20197;-60
2021/12/18 09:10:03;;;;;;;5.45;3.65;;;6.90;99.90;;;;;;5097087;28;20699;-60
2021/12/18 09:12:30;;;;;;;6.60;3.20;;;6.90;99.90;;;;;;5096851;28;20566;-61
2021/12/18 09:14:59;;;;;;;6.05;3.13;;;6.90;99.90;;;;;;5097465;28;20620;-60
2021/12/18 09:17:26;;;;;;;7.45;3.72;;;6.90;99.90;;;;;;5098982;28;20211;-60
2021/12/18 09:19:53;;;;;;;5.22;3.05;;;7.00;99.90;;;;;;5097258;28;20196;-59
2021/12/18 09:22:20;;;;;;;7.10;3.40;;;7.00;99.90;;;;;;5096365;28;20236;-59
2021/12/18 09:24:48;;;;;;;5.43;4.38;;;7.00;99.90;;;;;;5097004;28;20223;-59
2021/12/18 09:27:15;;;;;;;5.85;3.08;;;7.00;99.90;;;;;;5096730;28;20227;-59
2021/12/18 09:29:42;;;;;;;7.55;3.97;;;6.90;99.90;;;;;;5096758;28;20230;-61
2021/12/18 09:32:11;;;;;;;7.53;3.15;;;6.90;99.90;;;;;;5096667;28;20220;-59
2021/12/18 09:34:38;;;;;;;6.13;3.70;;;6.90;99.90;;;;;;5096972;28;20577;-60
2021/12/18 09:37:05;;;;;;;6.63;3.33;;;6.90;99.90;;;;;;5096855;28;20211;-60
2021/12/18 09:39:32;;;;;;;7.45;3.47;;;6.90;99.90;;;;;;5095826;28;20672;-60
2021/12/18 09:42:00;;;;;;;6.32;3.10;;;6.90;99.90;;;;;;5095896;28;20228;-60
2021/12/18 09:44:30;;;;;;;7.50;3.38;;;6.90;99.90;;;;;;5096173;28;20204;-58
2021/12/18 09:46:58;;;;;;;5.72;3.33;;;6.90;99.90;;;;;;5096535;28;20207;-60
2021/12/18 09:49:27;;;;;;;6.13;3.60;;;6.90;99.90;;;;;;5099086;28;20212;-60
2021/12/18 09:51:55;;;;;;;5.88;3.47;;;6.90;99.90;;;;;;5105783;28;20231;-60
2021/12/18 09:54:23;;;;;;;5.90;3.10;;;6.90;99.90;;;;;;5108214;28;20200;-58
2021/12/18 09:56:51;;;;;;;5.38;2.97;;;6.90;99.90;;;;;;5106372;28;20204;-60
2021/12/18 09:59:19;;;;;;;5.07;3.17;;;6.90;99.90;;;;;;5107339;28;20208;-61
2021/12/18 10:01:46;;;;;;;4.68;3.13;;;6.90;99.90;;;;;;5096845;28;20220;-60
2021/12/18 10:04:31;;;;;;;5.50;3.42;;;6.90;99.90;;;;;;5096912;28;20224;-61
2021/12/18 10:06:59;;;;;;;6.13;3.40;;;6.90;99.90;;;;;;5095938;28;20192;-60
2021/12/18 10:09:32;;;;;;;7.22;3.67;;;6.90;99.90;;;;;;5096144;28;20231;-59
2021/12/18 10:12:00;;;;;;;4.43;2.60;;;6.90;99.90;;;;;;5097990;28;20220;-60
2021/12/18 10:14:36;;;;;;;5.97;3.60;;;6.90;99.90;;;;;;5102001;28;20208;-60
2021/12/18 10:17:04;;;;;;;6.03;4.10;;;6.90;99.90;;;;;;5098833;28;20191;-61
2021/12/18 10:19:35;;;;;;;6.60;3.20;;;6.90;99.90;;;;;;5095188;28;20543;-62
2021/12/18 10:22:05;;;;;;;5.85;3.15;;;6.90;99.90;;;;;;5094979;28;20239;-59
2021/12/18 10:24:34;;;;;;;6.38;3.72;;;7.00;99.90;;;;;;5095908;28;20184;-61
2021/12/18 10:27:13;;;;;;;4.45;3.80;;;7.00;99.90;;;;;;5096119;28;20200;-60
2021/12/18 10:29:41;;;;;;;5.90;3.70;;;7.10;99.90;;;;;;5096046;28;20204;-60
2021/12/18 10:32:11;;;;;;;5.72;3.53;;;7.10;99.90;;;;;;5096100;28;20624;-60
2021/12/18 10:34:41;;;;;;;5.90;4.05;;;7.10;99.90;;;;;;5095963;28;20204;-59
2021/12/18 10:37:17;;;;;;;6.50;3.33;;;7.00;99.90;;;;;;5095466;28;20208;-60
2021/12/18 10:39:57;;;;;;;7.50;4.22;;;7.10;99.90;;;;;;5096008;28;20192;-61
2021/12/18 10:42:27;;;;;;;9.13;4.70;;;7.10;99.90;;;;;;5096221;28;20758;-60
2021/12/18 10:45:04;;;;;;;4.43;3.45;;;7.10;99.90;;;;;;5095744;28;20292;-60
2021/12/18 10:47:53;;;;;;;4.22;3.05;;;7.10;99.90;;;;;;5095950;28;20215;-60
2021/12/18 10:50:28;;;;;;;3.90;2.90;;;7.10;99.90;;;;;;5095708;28;20209;-60
2021/12/18 10:53:01;;;;;;;6.38;3.00;;;7.10;99.90;;;;;;5096065;28;20195;-61
2021/12/18 10:55:31;;;;;;;5.50;3.10;;;7.00;99.90;;;;;;5096085;28;20196;-61
2021/12/18 10:57:58;;;;;;;5.55;3.55;;;7.00;99.90;;;;;;5105723;28;20204;-60
2021/12/18 11:00:34;;;;;;;5.28;2.88;;;7.10;99.90;;;;;;5100576;28;20220;-58
2021/12/18 11:03:14;;;;;;;6.88;3.55;;;7.00;99.90;;;;;;5096038;28;20199;-60
2021/12/18 11:05:43;;;;;;;4.55;3.40;;;7.10;99.90;;;;;;5095336;28;20571;-59
2021/12/18 11:08:11;;;;;;;5.57;3.17;;;7.00;99.90;;;;;;5096095;28;20197;-59
2021/12/18 11:10:53;;;;;;;6.43;3.72;;;7.00;99.90;;;;;;5094493;28;20301;-61
2021/12/18 11:16:06;;;;;;;4.82;3.25;;;6.90;99.90;;;;;;5094894;28;20179;-60
2021/12/18 11:18:35;;;;;;;6.25;3.58;;;6.90;99.90;;;;;;5095279;28;20648;-61
2021/12/18 11:21:04;;;;;;;4.85;3.42;;;7.00;99.90;;;;;;5096538;28;20704;-61
2021/12/18 11:23:40;;;;;;;6.90;3.25;;;6.90;99.90;;;;;;5095747;28;20559;-61
2021/12/18 11:26:09;;;;;;;5.30;3.20;;;6.90;99.90;;;;;;5096145;28;20188;-59
2021/12/18 11:28:38;;;;;;;4.35;3.40;;;6.90;99.90;;;;;;5095577;28;20207;-60
2021/12/18 11:31:05;;;;;;;5.53;3.40;;;6.90;99.90;;;;;;5095368;28;20599;-61
2021/12/18 11:33:33;;;;;;;5.03;3.33;;;6.90;99.90;;;;;;5095761;28;20200;-61
2021/12/18 11:36:03;;;;;;;5.13;3.60;;;6.90;99.90;;;;;;5095650;28;20196;-60
2021/12/18 11:38:32;;;;;;;3.10;2.58;;;7.00;99.90;;;;;;5095847;28;20180;-60
2021/12/18 11:41:00;;;;;;;6.25;3.88;;;7.00;99.90;;;;;;5095586;28;20216;-60
2021/12/18 11:43:33;;;;;;;6.05;3.42;;;7.00;99.90;;;;;;5095300;28;20207;-60
2021/12/18 11:46:00;;;;;;;6.25;3.00;;;7.00;99.90;;;;;;5095923;28;20212;-60
2021/12/18 11:48:28;;;;;;;4.82;3.03;;;7.00;99.90;;;;;;5097325;28;20205;-60
2021/12/18 11:50:55;;;;;;;7.55;3.58;;;7.00;99.90;;;;;;5099359;28;20236;-60
2021/12/18 11:53:36;;;;;;;4.07;2.85;;;7.00;99.90;;;;;;5103324;28;20684;-60
2021/12/18 11:56:04;;;;;;;4.25;2.90;;;7.00;99.90;;;;;;5102645;28;20188;-60
2021/12/18 11:58:34;;;;;;;6.45;3.35;;;7.00;99.90;;;;;;5098020;28;20713;-60
2021/12/18 12:01:05;;;;;;;5.15;2.70;;;7.00;99.90;;;;;;5096795;28;20517;-61
2021/12/18 12:03:36;;;;;;;3.33;3.00;;;7.00;99.90;;;;;;5094986;28;20185;-59
2021/12/18 12:06:06;;;;;;;4.55;3.20;;;7.00;99.90;;;;;;5095452;28;20230;-60
2021/12/18 12:08:39;;;;;;;3.55;2.90;;;7.00;99.90;;;;;;5121485;22;20304;-58
2021/12/18 12:11:23;;;;;;;4.10;2.92;;;7.00;99.90;;;;;;5073419;28;20213;-58
2021/12/18 12:14:11;;;;;;;5.03;3.42;;;7.00;99.90;;;;;;5073484;28;20243;-59
2021/12/18 12:17:01;;;;;;;4.55;3.08;;;7.10;99.90;;;;;;5073289;28;20186;-58
2021/12/18 12:19:52;;;;;;;4.00;2.85;;;7.20;99.90;;;;;;5087341;28;20247;-58
2021/12/18 12:22:53;;;;;;;4.78;3.15;;;7.10;99.90;;;;;;5094301;28;20192;-59
2021/12/18 12:25:38;;;;;;;3.22;2.35;;;7.20;99.90;;;;;;5094072;28;20204;-59
2021/12/18 12:28:07;;;;;;;4.80;3.25;;;7.20;99.90;;;;;;5094143;28;20536;-56
2021/12/18 12:30:43;;;;;;;2.70;2.35;;;7.20;99.90;;;;;;5096482;28;20227;-59
2021/12/18 12:33:20;;;;;;;5.05;2.78;;;7.20;99.90;;;;;;5097285;28;20216;-58
2021/12/18 12:36:00;;;;;;;5.07;2.67;;;7.20;99.90;;;;;;5098489;28;20191;-58
2021/12/18 12:38:31;;;;;;;4.25;3.20;;;7.20;99.90;;;;;;5097544;28;20223;-58
2021/12/18 12:41:30;;;;;;;4.88;3.10;;;7.20;99.90;;;;;;5097341;28;20205;-58
2021/12/18 12:44:01;;;;;;;2.50;2.28;;;7.20;99.90;;;;;;5097668;28;20212;-58
2021/12/18 12:46:29;;;;;;;3.35;2.85;;;7.20;99.90;;;;;;5098079;28;20197;-58
2021/12/18 12:49:11;;;;;;;3.03;2.70;;;7.20;99.90;;;;;;5100433;28;20231;-57
2021/12/18 12:52:04;;;;;;;5.22;3.85;;;7.30;99.90;;;;;;5097035;28;20608;-58
2021/12/18 12:54:49;;;;;;;4.60;2.95;;;7.30;99.90;;;;;;5078133;28;20207;-57
2021/12/18 12:57:37;;;;;;;5.72;3.30;;;7.30;99.90;;;;;;5097162;28;20223;-57
2021/12/18 13:00:38;;;;;;;6.18;3.20;;;7.30;99.90;;;;;;5096397;28;20220;-57
2021/12/18 13:03:23;;;;;;;5.68;3.20;;;7.30;99.90;;;;;;5096670;28;20211;-57
2021/12/18 13:06:04;;;;;;;3.58;2.67;;;7.30;99.90;;;;;;5096718;28;20193;-57
2021/12/18 13:08:34;;;;;;;4.65;3.35;;;7.30;99.90;;;;;;5096557;28;20310;-58
2021/12/18 13:11:01;;;;;;;4.63;2.90;;;7.30;99.90;;;;;;5096728;28;20695;-57
2021/12/18 13:13:32;;;;;;;5.93;3.67;;;7.30;99.90;;;;;;5096457;28;20205;-57
2021/12/18 13:16:03;;;;;;;3.60;2.85;;;7.30;99.90;;;;;;5097745;28;20180;-58
2021/12/18 13:18:32;;;;;;;5.25;3.58;;;7.30;99.90;;;;;;5097963;28;20258;-58
2021/12/18 13:21:02;;;;;;;4.75;3.40;;;7.30;99.90;;;;;;5096877;28;20196;-57
2021/12/18 13:23:47;;;;;;;4.50;3.10;;;7.30;99.90;;;;;;5095889;28;20200;-58
2021/12/18 13:26:17;;;;;;;4.15;3.30;;;7.30;99.90;;;;;;5095871;28;20200;-57
2021/12/18 13:28:54;;;;;;;5.00;3.45;;;7.30;99.90;;;;;;5095792;28;20223;-57
2021/12/18 13:31:24;;;;;;;3.40;2.60;;;7.40;99.90;;;;;;5095910;28;20208;-57
2021/12/18 13:34:01;;;;;;;5.05;3.10;;;7.40;99.90;;;;;;5095912;28;20197;-57
2021/12/18 13:36:54;;;;;;;4.82;3.47;;;7.40;99.90;;;;;;5096384;28;20191;-57
2021/12/18 13:39:23;;;;;;;4.75;3.42;;;7.40;99.90;;;;;;5077014;28;20722;-57
2021/12/18 13:42:11;;;;;;;3.30;2.97;;;7.40;99.90;;;;;;5096765;28;20227;-57
2021/12/18 13:44:51;;;;;;;4.95;3.25;;;7.40;99.90;;;;;;5095947;28;20604;-57
2021/12/18 13:47:25;;;;;;;6.18;3.90;;;7.40;99.90;;;;;;5095681;28;20192;-57